Ty Lotus — DSNU7 — position and weather

sailwx.info

Track history (hours):
 
Tides and Currents Weather Stations Pressure Air Temp Water Temp Dewpoint Dewpoint Depression Visibility Wind Speed Wind Dir Waves Ship Positions

Ty Lotus

Last reported at 2015-May-27 10:16 UTC. Time now 2015-May-27 11:46 UTC.
Position N 38°02' E 123°01'.

Length 82 m; draft 5.5 m.

Type: Cargo ship. MMSI: 440324000.

Date/timePositionNaut miles runAvg speedWind from/ knotsBaromVisibWave heightAir tempDewpointWater temp
2015-May-27 10:16N 38°02' E 123°01'19 9.7
2015-May-27 08:20N 38°08' E 122°38'27 9.3
2015-May-27 05:26N 38°15' E 122°05'13 9.7
2015-May-27 04:05N 38°18' E 121°49'1810.3
2015-May-27 02:20N 38°24' E 121°27'16910.0
2015-May-26 09:32N 38°57' E 117°55'9 8.9
2015-May-26 08:33N 38°59' E 117°44'0 0.0
2015-May-25 12:33N 38°59' E 117°44'0 0.0
2015-May-25 11:33N 38°59' E 117°44'4 4.2
2015-May-25 10:33N 38°58' E 117°49'9 0.3
2015-May-24 01:13N 38°57' E 118°02'  
2015-May-21 16:29N 38°43' E 119°32'1010.5
2015-May-21 15:33N 38°43' E 119°45'8510.4
2015-May-21 07:23N 38°26' E 121°31'1111.6
2015-May-21 06:28N 38°22' E 121°44'1111.0
2015-May-21 05:28N 38°19' E 121°57'1010.5
2015-May-21 04:33N 38°16' E 122°09'1010.1
2015-May-21 03:32N 38°12' E 122°21'1410.6
2015-May-21 02:13N 38°09' E 122°39'  
Track history (hours):
 
Tides and Currents Weather Stations Pressure Air Temp Water Temp Dewpoint Dewpoint Depression Visibility Wind Speed Wind Dir Waves Ship Positions

Ty Lotus

Last reported at 2015-May-27 10:16 UTC. Time now 2015-May-27 11:46 UTC.
Position N 38°02' E 123°01'.

Length 82 m; draft 5.5 m.

Type: Cargo ship. MMSI: 440324000.

Date/timePositionNaut miles runAvg speedWind from/ knotsBaromVisibWave heightAir tempDewpointWater temp
2015-May-27 10:16N 38°02' E 123°01'19 9.7
2015-May-27 08:20N 38°08' E 122°38'27 9.3
2015-May-27 05:26N 38°15' E 122°05'13 9.7
2015-May-27 04:05N 38°18' E 121°49'1810.3
2015-May-27 02:20N 38°24' E 121°27'16910.0
2015-May-26 09:32N 38°57' E 117°55'9 8.9
2015-May-26 08:33N 38°59' E 117°44'0 0.0
2015-May-25 12:33N 38°59' E 117°44'0 0.0
2015-May-25 11:33N 38°59' E 117°44'4 4.2
2015-May-25 10:33N 38°58' E 117°49'9 0.3
2015-May-24 01:13N 38°57' E 118°02'  
2015-May-21 16:29N 38°43' E 119°32'1010.5
2015-May-21 15:33N 38°43' E 119°45'8510.4
2015-May-21 07:23N 38°26' E 121°31'1111.6
2015-May-21 06:28N 38°22' E 121°44'1111.0
2015-May-21 05:28N 38°19' E 121°57'1010.5
2015-May-21 04:33N 38°16' E 122°09'1010.1
2015-May-21 03:32N 38°12' E 122°21'1410.6
2015-May-21 02:13N 38°09' E 122°39'  

Dump ship's entire track history